createdAt,value
2023-11-30T00:02:25.777Z,96191.13
2023-11-30T00:04:52.389Z,96197.09
2023-11-30T00:07:18.944Z,96200.50
2023-11-30T00:09:45.488Z,96206.47
2023-11-30T00:12:12.115Z,96209.88
2023-11-30T00:14:38.671Z,96205.63
2023-11-30T00:17:05.557Z,96203.06
2023-11-30T00:19:32.080Z,96203.91
2023-11-30T00:21:58.599Z,96215.00
2023-11-30T00:24:25.150Z,96215.84
2023-11-30T00:26:51.766Z,96221.78
2023-11-30T00:29:18.304Z,96172.94
2023-11-30T00:31:44.859Z,96217.53
2023-11-30T00:34:11.512Z,96217.53
2023-11-30T00:36:38.057Z,96218.41
2023-11-30T00:39:04.935Z,96220.97
2023-11-30T00:41:31.648Z,96209.00
2023-11-30T00:43:58.231Z,96220.97
2023-11-30T00:46:25.126Z,96215.00
2023-11-30T00:48:51.704Z,96215.84
2023-11-30T00:51:18.505Z,96212.44
2023-11-30T00:53:45.109Z,96212.44
2023-11-30T00:56:12.096Z,96210.72
2023-11-30T00:58:38.668Z,96210.72
2023-11-30T01:01:05.384Z,96214.13
2023-11-30T01:03:32.049Z,96212.41
2023-11-30T01:05:58.609Z,96209.88
2023-11-30T01:08:25.159Z,96205.63
2023-11-30T01:10:51.727Z,96197.09
2023-11-30T01:13:18.244Z,96200.50
2023-11-30T01:15:45.105Z,96206.47
2023-11-30T01:18:11.800Z,96210.72
2023-11-30T01:20:38.410Z,96205.63
2023-11-30T01:23:05.614Z,96196.25
2023-11-30T01:25:32.405Z,96200.53
2023-11-30T01:27:58.917Z,96202.22
2023-11-30T01:30:25.462Z,96203.09
2023-11-30T01:32:52.121Z,96199.69
2023-11-30T01:35:18.801Z,96202.22
2023-11-30T01:37:45.405Z,96194.56
2023-11-30T01:40:12.208Z,96200.53
2023-11-30T01:42:38.869Z,96191.13
2023-11-30T01:45:05.834Z,96188.56
2023-11-30T01:47:32.616Z,96188.56
2023-11-30T01:50:00.419Z,96187.75
2023-11-30T01:52:27.005Z,96188.56
2023-11-30T01:54:53.573Z,96182.66
2023-11-30T01:57:20.173Z,96184.31
2023-11-30T01:59:46.814Z,96186.03
2023-11-30T02:02:13.422Z,96180.91
2023-11-30T02:04:41.097Z,96177.53
2023-11-30T02:07:07.659Z,96174.97
2023-11-30T02:09:34.232Z,96129.53
2023-11-30T02:12:00.766Z,96173.25
2023-11-30T02:14:27.312Z,96174.97
2023-11-30T02:16:53.819Z,96164.72
2023-11-30T02:19:20.445Z,96165.56
2023-11-30T02:21:52.873Z,96153.66
2023-11-30T02:24:19.552Z,96143.44
2023-11-30T02:26:46.214Z,96145.16
2023-11-30T02:29:16.576Z,96147.72
2023-11-30T02:31:43.775Z,96140.03
2023-11-30T02:34:10.388Z,96138.34
2023-11-30T02:36:36.930Z,96148.56
2023-11-30T02:39:03.488Z,96140.91
2023-11-30T02:41:30.089Z,96146.00
2023-11-30T02:43:57.117Z,96140.91
2023-11-30T02:46:24.506Z,96133.25
2023-11-30T02:48:51.144Z,96137.50
2023-11-30T02:51:17.755Z,96129.00
2023-11-30T02:53:44.364Z,96138.34
2023-11-30T02:56:11.149Z,96130.69
2023-11-30T02:58:37.687Z,96099.06
2023-11-30T03:01:04.796Z,96111.09
2023-11-30T03:03:31.625Z,96118.78
2023-11-30T03:05:58.400Z,96119.59
2023-11-30T03:08:25.100Z,96121.31
2023-11-30T03:10:51.889Z,96128.13
2023-11-30T03:13:18.435Z,96104.25
2023-11-30T03:15:46.062Z,96097.47
2023-11-30T03:18:12.740Z,96101.72
2023-11-30T03:20:39.352Z,96100.03
2023-11-30T03:23:05.948Z,96104.28
2023-11-30T03:25:34.189Z,96102.59
2023-11-30T03:28:01.061Z,96095.78
2023-11-30T03:30:27.819Z,96100.88
2023-11-30T03:32:56.291Z,96111.94
2023-11-30T03:35:22.947Z,96120.47
2023-11-30T03:37:51.038Z,96115.34
2023-11-30T03:40:17.656Z,96107.69
2023-11-30T03:42:44.205Z,96097.41
2023-11-30T03:45:10.843Z,96094.91
2023-11-30T03:47:37.571Z,96089.81
2023-11-30T03:50:04.367Z,96088.94
2023-11-30T03:52:30.916Z,96097.47
2023-11-30T03:54:57.587Z,96106.00
2023-11-30T03:57:24.218Z,96115.38
2023-11-30T03:59:51.998Z,96108.56
2023-11-30T04:02:18.799Z,96112.78
2023-11-30T04:04:45.394Z,96111.09
2023-11-30T04:07:11.914Z,96101.72
2023-11-30T04:09:39.002Z,96105.16
2023-11-30T04:12:05.870Z,96110.25
2023-11-30T04:14:32.385Z,96102.59
2023-11-30T04:17:02.412Z,96099.16
2023-11-30T04:19:30.794Z,96094.06
2023-11-30T04:21:57.352Z,96102.59
2023-11-30T04:24:23.956Z,96103.44
2023-11-30T04:26:51.833Z,96106.00
2023-11-30T04:29:18.392Z,96088.13
2023-11-30T04:31:44.962Z,96094.91
2023-11-30T04:34:11.725Z,96095.78
2023-11-30T04:36:38.268Z,96087.25
2023-11-30T04:39:05.694Z,96083.84
2023-11-30T04:41:32.349Z,96083.00
2023-11-30T04:43:58.902Z,96080.47
2023-11-30T04:46:25.503Z,96081.28
2023-11-30T04:48:52.200Z,96088.13
2023-11-30T04:51:18.810Z,96082.16
2023-11-30T04:53:45.415Z,96089.84
2023-11-30T04:56:12.034Z,96081.31
2023-11-30T04:58:38.578Z,96048.91
2023-11-30T05:01:05.412Z,96074.53
2023-11-30T05:03:32.239Z,96076.22
2023-11-30T05:05:58.945Z,96083.88
2023-11-30T05:08:25.464Z,96078.78
2023-11-30T05:10:51.988Z,96074.53
2023-11-30T05:13:18.526Z,96073.66
2023-11-30T05:15:46.979Z,96065.16
2023-11-30T05:18:14.139Z,96058.34
2023-11-30T05:20:41.683Z,96049.84
2023-11-30T05:23:08.212Z,96047.28
2023-11-30T05:25:34.738Z,96043.88
2023-11-30T05:28:01.358Z,96049.84
2023-11-30T05:30:28.114Z,96041.34
2023-11-30T05:32:54.713Z,96049.84
2023-11-30T05:35:21.886Z,96051.56
2023-11-30T05:37:48.419Z,96046.44
2023-11-30T05:40:14.982Z,96043.88
2023-11-30T05:42:42.403Z,96043.88
2023-11-30T05:45:09.425Z,96048.09
2023-11-30T05:47:36.790Z,96046.41
2023-11-30T05:50:04.304Z,96049.81
2023-11-30T05:52:30.851Z,96041.28
2023-11-30T05:54:59.009Z,96027.59
2023-11-30T05:57:25.604Z,96035.31
2023-11-30T05:59:52.180Z,96035.28
2023-11-30T06:02:18.864Z,96031.03
2023-11-30T06:04:53.112Z,96029.34
2023-11-30T06:07:20.641Z,96022.50
2023-11-30T06:09:47.544Z,96023.38
2023-11-30T06:12:14.248Z,96024.22
2023-11-30T06:14:40.908Z,96025.06
2023-11-30T06:17:07.414Z,96019.09
2023-11-30T06:19:34.030Z,96029.31
2023-11-30T06:22:01.568Z,96039.53
2023-11-30T06:24:28.129Z,96043.78
2023-11-30T06:26:54.786Z,96031.00
2023-11-30T06:29:22.548Z,96029.31
2023-11-30T06:31:49.126Z,96027.59
2023-11-30T06:34:15.638Z,96031.00
2023-11-30T06:36:42.235Z,96035.22
2023-11-30T06:39:08.967Z,96033.53
2023-11-30T06:41:35.496Z,96040.31
2023-11-30T06:44:02.018Z,96034.25
2023-11-30T06:46:28.584Z,96038.53
2023-11-30T06:48:55.193Z,96050.44
2023-11-30T06:51:21.838Z,96040.19
2023-11-30T06:53:48.426Z,96036.78
2023-11-30T06:56:14.957Z,96038.47
2023-11-30T06:58:41.511Z,96033.34
2023-11-30T07:01:08.513Z,96031.63
2023-11-30T07:03:42.377Z,96040.13
2023-11-30T07:06:10.484Z,96040.13
2023-11-30T07:08:37.094Z,96038.44
2023-11-30T07:11:07.177Z,96028.22
2023-11-30T07:13:33.739Z,96029.06
2023-11-30T07:16:00.397Z,96022.22
2023-11-30T07:18:27.002Z,96008.63
2023-11-30T07:20:53.581Z,96012.00
2023-11-30T07:23:20.109Z,96004.34
2023-11-30T07:25:47.169Z,96010.31
2023-11-30T07:28:13.714Z,96017.13
2023-11-30T07:30:43.875Z,96000.09
2023-11-30T07:33:10.933Z,95992.44
2023-11-30T07:35:38.503Z,95988.22
2023-11-30T07:38:05.492Z,95990.78
2023-11-30T07:40:34.872Z,95978.84
2023-11-30T07:43:01.792Z,95983.94
2023-11-30T07:45:29.758Z,95962.63
2023-11-30T07:47:57.798Z,95983.13
2023-11-30T07:50:28.184Z,95982.25
2023-11-30T07:52:54.783Z,95981.44
2023-11-30T07:55:21.320Z,95979.72
2023-11-30T07:57:48.774Z,95983.16
2023-11-30T08:00:16.538Z,95983.16
2023-11-30T08:02:43.750Z,95987.41
2023-11-30T08:05:10.385Z,95984.84
2023-11-30T08:07:37.018Z,95990.81
2023-11-30T08:10:06.252Z,95986.56
2023-11-30T08:12:33.065Z,95988.28
2023-11-30T08:14:59.728Z,95988.28
2023-11-30T08:17:26.382Z,95978.91
2023-11-30T08:19:53.024Z,95973.78
2023-11-30T08:22:19.679Z,95965.31
2023-11-30T08:24:46.347Z,95964.41
2023-11-30T08:27:13.009Z,95963.59
2023-11-30T08:29:39.687Z,95975.53
2023-11-30T08:32:06.749Z,95978.91
2023-11-30T08:34:33.361Z,95982.34
2023-11-30T08:37:01.165Z,95988.31
2023-11-30T08:39:29.860Z,95990.88
2023-11-30T08:41:56.754Z,95998.53
2023-11-30T08:44:26.008Z,95990.88
2023-11-30T08:46:53.526Z,95991.69
2023-11-30T08:49:20.162Z,95992.56
2023-11-30T08:51:46.837Z,95985.75
2023-11-30T08:54:13.447Z,95985.75
2023-11-30T08:56:40.042Z,95986.59
2023-11-30T08:59:06.576Z,95978.94
2023-11-30T09:01:33.868Z,95979.81
2023-11-30T09:04:07.157Z,95984.91
2023-11-30T09:06:34.933Z,95989.16
2023-11-30T09:09:02.454Z,95984.06
2023-11-30T09:11:31.860Z,95977.25
2023-11-30T09:13:58.610Z,95967.06
2023-11-30T09:16:26.664Z,95966.25
2023-11-30T09:18:55.538Z,95963.69
2023-11-30T09:21:22.726Z,95956.88
2023-11-30T09:23:49.338Z,95964.56
2023-11-30T09:26:16.024Z,95977.31
2023-11-30T09:28:42.664Z,95974.78
2023-11-30T09:31:09.446Z,95973.91
2023-11-30T09:33:36.079Z,95963.63
2023-11-30T09:36:03.060Z,95977.31
2023-11-30T09:38:29.680Z,95967.97
2023-11-30T09:40:56.250Z,95959.44
2023-11-30T09:43:22.784Z,95955.22
2023-11-30T09:45:50.907Z,95956.03
2023-11-30T09:48:17.639Z,95959.44
2023-11-30T09:50:44.262Z,95956.91
2023-11-30T09:53:11.501Z,95949.22
2023-11-30T09:55:38.092Z,95936.41
2023-11-30T09:58:07.354Z,95939.88
2023-11-30T10:00:34.524Z,95930.50
2023-11-30T10:03:01.460Z,95922.00
2023-11-30T10:05:29.865Z,95938.16
2023-11-30T10:08:00.066Z,95925.38
2023-11-30T10:10:26.828Z,95922.00
2023-11-30T10:12:54.377Z,95912.63
2023-11-30T10:15:21.593Z,95919.44
2023-11-30T10:17:49.976Z,95915.16
2023-11-30T10:20:18.822Z,95901.56
2023-11-30T10:22:45.385Z,95894.75
2023-11-30T10:25:12.013Z,95895.59
2023-11-30T10:27:38.793Z,95882.84
2023-11-30T10:30:06.288Z,95888.81
2023-11-30T10:32:38.186Z,95889.63
2023-11-30T10:35:06.507Z,95883.69
2023-11-30T10:37:46.547Z,95872.56
2023-11-30T10:40:13.592Z,95870.88
2023-11-30T10:42:43.221Z,95863.22
2023-11-30T10:45:09.958Z,95851.28
2023-11-30T10:47:36.624Z,95849.56
2023-11-30T10:50:07.013Z,95854.69
2023-11-30T10:52:34.032Z,95847.03
2023-11-30T10:55:14.328Z,95866.59
2023-11-30T10:57:44.412Z,95859.78
2023-11-30T11:00:15.156Z,95851.28
2023-11-30T11:02:46.415Z,95856.38
2023-11-30T11:05:16.454Z,95856.38
2023-11-30T11:07:45.940Z,95853.88
2023-11-30T11:10:24.154Z,95849.66
2023-11-30T11:12:51.617Z,95855.63
2023-11-30T11:15:22.592Z,95843.69
2023-11-30T11:18:05.205Z,95829.25
2023-11-30T11:20:32.847Z,95815.63
2023-11-30T11:23:05.214Z,95809.69
2023-11-30T11:25:44.714Z,95803.72
2023-11-30T11:28:12.518Z,95802.03
2023-11-30T11:30:47.102Z,95804.59
2023-11-30T11:33:16.143Z,95809.72
2023-11-30T11:35:42.932Z,95813.97
2023-11-30T11:38:09.724Z,95817.38
2023-11-30T11:40:39.208Z,95815.66
2023-11-30T11:43:05.746Z,95801.19
2023-11-30T11:45:33.981Z,95781.59
2023-11-30T11:48:00.653Z,95813.13
2023-11-30T11:50:27.197Z,95794.41
2023-11-30T11:52:59.693Z,95802.91
2023-11-30T11:55:26.331Z,95804.63
2023-11-30T11:57:53.139Z,95809.75
2023-11-30T12:00:21.714Z,95784.19
2023-11-30T12:02:49.026Z,95791.00
2023-11-30T12:05:26.376Z,95802.91
2023-11-30T12:08:04.205Z,95789.31
2023-11-30T12:10:31.609Z,95807.19
2023-11-30T12:13:01.629Z,95809.75
2023-11-30T12:15:28.868Z,95794.41
2023-11-30T12:17:55.548Z,95795.25
2023-11-30T12:20:22.149Z,95779.09
2023-11-30T12:22:48.744Z,95787.59
2023-11-30T12:25:15.482Z,95787.59
2023-11-30T12:27:42.198Z,95788.44
2023-11-30T12:30:09.990Z,95785.03
2023-11-30T12:32:38.775Z,95785.03
2023-11-30T12:35:06.070Z,95785.03
2023-11-30T12:37:32.881Z,95802.06
2023-11-30T12:40:00.263Z,95793.53
2023-11-30T12:42:28.202Z,95775.66
2023-11-30T12:44:54.834Z,95775.66
2023-11-30T12:47:22.097Z,95771.41
2023-11-30T12:49:51.429Z,95773.09
2023-11-30T12:52:18.025Z,95773.94
2023-11-30T12:54:46.555Z,95773.94
2023-11-30T12:57:13.195Z,95773.94
2023-11-30T12:59:39.756Z,95781.59
2023-11-30T13:02:07.493Z,95769.66
2023-11-30T13:04:34.948Z,95776.47
2023-11-30T13:07:01.728Z,95769.66
2023-11-30T13:09:33.438Z,95761.97
2023-11-30T13:12:00.609Z,95774.75
2023-11-30T13:14:27.277Z,95787.50
2023-11-30T13:16:54.482Z,95795.16
2023-11-30T13:19:24.617Z,95795.16
2023-11-30T13:21:52.152Z,95802.00
2023-11-30T13:24:19.682Z,95800.28
2023-11-30T13:26:48.094Z,95795.16
2023-11-30T13:29:14.675Z,95796.91
2023-11-30T13:31:41.577Z,95799.44
2023-11-30T13:34:08.136Z,95792.63
2023-11-30T13:36:34.813Z,95803.69
2023-11-30T13:39:01.705Z,95793.47
2023-11-30T13:41:28.406Z,95785.81
2023-11-30T13:43:55.155Z,95767.88
2023-11-30T13:46:22.307Z,95783.25
2023-11-30T13:48:49.107Z,95783.25
2023-11-30T13:51:15.972Z,95782.41
2023-11-30T13:53:42.767Z,95788.38
2023-11-30T13:56:09.789Z,95777.31
2023-11-30T13:58:36.376Z,95769.63
2023-11-30T14:01:03.044Z,95774.75
2023-11-30T14:03:29.789Z,95770.50
2023-11-30T14:05:56.421Z,95784.13
2023-11-30T14:08:22.941Z,95796.03
2023-11-30T14:10:49.876Z,95796.03
2023-11-30T14:13:16.423Z,95792.63
2023-11-30T14:15:43.130Z,95784.97
2023-11-30T14:18:09.993Z,95777.31
2023-11-30T14:20:37.688Z,95775.59
2023-11-30T14:23:05.670Z,95783.28
2023-11-30T14:25:32.227Z,95778.16
2023-11-30T14:28:03.467Z,95781.59
2023-11-30T14:30:36.474Z,95784.13
2023-11-30T14:33:03.291Z,95778.16
2023-11-30T14:35:29.836Z,95785.81
2023-11-30T14:37:56.357Z,95779.03
2023-11-30T14:40:23.992Z,95796.03
2023-11-30T14:42:50.592Z,95794.34
2023-11-30T14:45:17.194Z,95796.91
2023-11-30T14:47:45.075Z,95784.97
2023-11-30T14:50:12.122Z,95779.84
2023-11-30T14:52:39.088Z,95784.97
2023-11-30T14:55:06.926Z,95781.56
2023-11-30T14:57:33.550Z,95783.28
2023-11-30T15:00:01.397Z,95786.69
2023-11-30T15:02:28.341Z,95784.97
2023-11-30T15:04:55.010Z,95778.16
2023-11-30T15:07:21.774Z,95776.47
2023-11-30T15:09:48.473Z,95792.63
2023-11-30T15:12:15.174Z,95794.34
2023-11-30T15:14:41.725Z,95787.50
2023-11-30T15:17:09.576Z,95779.84
2023-11-30T15:19:36.193Z,95800.28
2023-11-30T15:22:02.703Z,95791.78
2023-11-30T15:24:29.378Z,95790.94
2023-11-30T15:26:56.618Z,95796.91
2023-11-30T15:29:24.479Z,95795.19
2023-11-30T15:31:51.085Z,95799.47
2023-11-30T15:34:17.692Z,95792.63
2023-11-30T15:36:44.296Z,95795.19
2023-11-30T15:39:16.818Z,95785.81
2023-11-30T15:41:51.282Z,95778.16
2023-11-30T15:44:18.074Z,95770.50
2023-11-30T15:46:44.810Z,95773.06
2023-11-30T15:49:14.332Z,95780.72
2023-11-30T15:51:43.708Z,95763.69
2023-11-30T15:54:10.822Z,95779.00
2023-11-30T15:56:37.474Z,95796.03
2023-11-30T15:59:04.611Z,95790.06
2023-11-30T16:01:32.242Z,95793.47
2023-11-30T16:03:59.340Z,95801.16
2023-11-30T16:06:26.413Z,95796.91
2023-11-30T16:08:53.996Z,95813.91
2023-11-30T16:11:20.610Z,95819.88
2023-11-30T16:13:47.171Z,95816.47
2023-11-30T16:16:13.872Z,95809.69
2023-11-30T16:18:41.538Z,95805.41
2023-11-30T16:21:16.564Z,95812.25
2023-11-30T16:23:44.351Z,95802.88
2023-11-30T16:26:17.650Z,95791.81
2023-11-30T16:28:44.364Z,95795.19
2023-11-30T16:31:10.953Z,95783.28
2023-11-30T16:33:37.563Z,95809.72
2023-11-30T16:36:04.169Z,95827.59
2023-11-30T16:38:30.731Z,95832.69
2023-11-30T16:40:57.250Z,95843.75
2023-11-30T16:43:23.899Z,95840.38
2023-11-30T16:45:50.503Z,95823.31
2023-11-30T16:48:17.157Z,95832.72
2023-11-30T16:50:43.767Z,95833.53
2023-11-30T16:53:10.300Z,95819.09
2023-11-30T16:55:36.843Z,95799.53
2023-11-30T16:58:04.638Z,95805.47
2023-11-30T17:00:31.621Z,95799.53
2023-11-30T17:02:58.363Z,95817.41
2023-11-30T17:05:25.007Z,95816.53
2023-11-30T17:07:52.564Z,95810.56
2023-11-30T17:10:19.100Z,95821.66
2023-11-30T17:12:46.694Z,95814.00
2023-11-30T17:15:13.509Z,95794.41
2023-11-30T17:17:40.161Z,95798.66
2023-11-30T17:20:08.663Z,95802.09
2023-11-30T17:22:35.646Z,95803.78
2023-11-30T17:25:02.266Z,95798.66
2023-11-30T17:27:28.831Z,95797.81
2023-11-30T17:29:55.379Z,95790.16
2023-11-30T17:32:21.967Z,95794.44
2023-11-30T17:34:48.793Z,95807.19
2023-11-30T17:37:15.593Z,95785.91
2023-11-30T17:39:42.303Z,95791.00
2023-11-30T17:42:09.818Z,95808.03
2023-11-30T17:44:36.355Z,95818.25
2023-11-30T17:47:02.935Z,95815.69
2023-11-30T17:49:29.472Z,95819.97
2023-11-30T17:51:56.012Z,95812.31
2023-11-30T17:54:22.514Z,95813.13
2023-11-30T17:56:49.066Z,95810.56
2023-11-30T17:59:15.692Z,95815.69
2023-11-30T18:01:42.329Z,95812.28
2023-11-30T18:04:08.957Z,95811.44
2023-11-30T18:06:35.956Z,95790.13
2023-11-30T18:09:02.550Z,95784.19
2023-11-30T18:11:29.116Z,95769.69
2023-11-30T18:13:56.868Z,95758.66
2023-11-30T18:16:23.483Z,95785.03
2023-11-30T18:18:50.115Z,95798.66
2023-11-30T18:21:16.679Z,95791.88
2023-11-30T18:23:43.294Z,95780.78
2023-11-30T18:26:09.860Z,95789.31
2023-11-30T18:28:36.417Z,95781.66
2023-11-30T18:31:12.235Z,95776.53
2023-11-30T18:33:46.888Z,95779.94
2023-11-30T18:36:13.501Z,95785.91
2023-11-30T18:38:47.705Z,95781.66
2023-11-30T18:41:17.732Z,95800.38
2023-11-30T18:43:44.273Z,95793.56
2023-11-30T18:46:10.813Z,95787.59
2023-11-30T18:48:37.818Z,95797.81
2023-11-30T18:51:06.626Z,95808.03
2023-11-30T18:53:33.822Z,95796.97
2023-11-30T18:56:01.558Z,95799.53
2023-11-30T18:58:28.100Z,95808.03
2023-11-30T19:00:55.898Z,95819.97
2023-11-30T19:03:23.180Z,95812.31
2023-11-30T19:05:50.439Z,95798.69
2023-11-30T19:08:17.078Z,95796.13
2023-11-30T19:10:44.065Z,95787.59
2023-11-30T19:13:11.688Z,95781.66
2023-11-30T19:15:42.222Z,95804.66
2023-11-30T19:18:09.049Z,95806.34
2023-11-30T19:20:38.098Z,95809.75
2023-11-30T19:23:04.610Z,95800.34
2023-11-30T19:25:31.195Z,95793.56
2023-11-30T19:27:58.033Z,95796.09
2023-11-30T19:30:24.746Z,95801.22
2023-11-30T19:32:52.157Z,95811.44
2023-11-30T19:35:20.139Z,95801.22
2023-11-30T19:37:46.654Z,95792.69
2023-11-30T19:40:13.478Z,95783.34
2023-11-30T19:42:40.140Z,95781.66
2023-11-30T19:45:07.329Z,95784.22
2023-11-30T19:47:34.906Z,95790.16
2023-11-30T19:50:01.550Z,95796.13
2023-11-30T19:52:28.610Z,95792.69
2023-11-30T19:54:55.508Z,95780.78
2023-11-30T19:57:22.135Z,95780.78
2023-11-30T19:59:49.014Z,95785.03
2023-11-30T20:02:15.759Z,95774.00
2023-11-30T20:04:42.387Z,95787.59
2023-11-30T20:07:08.938Z,95781.66
2023-11-30T20:09:35.562Z,95776.53
2023-11-30T20:12:02.221Z,95785.03
2023-11-30T20:14:28.899Z,95783.34
2023-11-30T20:16:55.699Z,95779.94
2023-11-30T20:19:22.362Z,95762.91
2023-11-30T20:21:49.000Z,95771.44
2023-11-30T20:24:15.588Z,95774.81
2023-11-30T20:26:42.361Z,95773.13
2023-11-30T20:29:09.033Z,95780.78
2023-11-30T20:31:35.749Z,95799.53
2023-11-30T20:34:03.989Z,95793.56
2023-11-30T20:36:30.746Z,95801.22
2023-11-30T20:38:57.393Z,95805.47
2023-11-30T20:41:25.429Z,95809.75
2023-11-30T20:43:54.193Z,95808.91
2023-11-30T20:46:21.434Z,95789.31
2023-11-30T20:48:48.305Z,95796.97
2023-11-30T20:51:18.352Z,95796.97
2023-11-30T20:53:45.614Z,95793.56
2023-11-30T20:56:12.470Z,95796.97
2023-11-30T20:58:39.840Z,95794.41
2023-11-30T21:01:06.897Z,95804.63
2023-11-30T21:03:33.628Z,95802.09
2023-11-30T21:06:02.049Z,95801.22
2023-11-30T21:08:29.539Z,95804.63
2023-11-30T21:10:56.069Z,95806.34
2023-11-30T21:13:22.773Z,95811.44
2023-11-30T21:15:49.542Z,95808.03
2023-11-30T21:18:16.196Z,95792.69
2023-11-30T21:20:42.760Z,95794.41
2023-11-30T21:23:09.445Z,95797.81
2023-11-30T21:25:36.002Z,95800.34
2023-11-30T21:28:02.577Z,95804.66
2023-11-30T21:30:29.237Z,95800.34
2023-11-30T21:32:55.912Z,95802.91
2023-11-30T21:35:22.550Z,95798.66
2023-11-30T21:37:49.072Z,95805.47
2023-11-30T21:40:15.803Z,95780.78
2023-11-30T21:42:42.445Z,95771.44
2023-11-30T21:45:09.183Z,95779.09
2023-11-30T21:47:36.559Z,95783.34
2023-11-30T21:50:19.481Z,95786.75
2023-11-30T21:52:47.740Z,95789.31
2023-11-30T21:55:15.160Z,95781.66
2023-11-30T21:57:45.867Z,95796.97
2023-11-30T22:00:13.457Z,95791.00
2023-11-30T22:02:45.471Z,95793.56
2023-11-30T22:05:23.637Z,95789.31
2023-11-30T22:07:53.912Z,95802.09
2023-11-30T22:10:20.585Z,95802.09
2023-11-30T22:12:47.357Z,95797.81
2023-11-30T22:15:14.071Z,95802.09
2023-11-30T22:17:40.701Z,95802.09
2023-11-30T22:20:08.749Z,95806.34
2023-11-30T22:22:35.631Z,95810.56
2023-11-30T22:25:02.259Z,95814.00
2023-11-30T22:27:28.879Z,95824.22
2023-11-30T22:29:55.418Z,95830.19
2023-11-30T22:32:22.582Z,95829.31
2023-11-30T22:34:49.163Z,95831.00
2023-11-30T22:37:15.770Z,95825.91
2023-11-30T22:39:43.743Z,95823.34
2023-11-30T22:42:10.314Z,95821.66
2023-11-30T22:44:36.917Z,95819.09
2023-11-30T22:47:03.973Z,95823.34
2023-11-30T22:49:30.678Z,95821.66
2023-11-30T22:51:57.932Z,95807.16
2023-11-30T22:54:24.554Z,95818.25
2023-11-30T22:56:51.893Z,95812.31
2023-11-30T22:59:18.712Z,95811.44
2023-11-30T23:01:45.763Z,95813.13
2023-11-30T23:04:13.925Z,95808.88
2023-11-30T23:06:41.569Z,95808.03
2023-11-30T23:09:08.223Z,95802.09
2023-11-30T23:11:35.008Z,95802.09
2023-11-30T23:14:01.615Z,95802.09
2023-11-30T23:16:28.378Z,95803.78
2023-11-30T23:18:55.209Z,95800.38
2023-11-30T23:21:21.832Z,95798.66
2023-11-30T23:23:48.400Z,95790.13
2023-11-30T23:26:15.546Z,95797.81
2023-11-30T23:28:42.103Z,95796.13
2023-11-30T23:31:08.830Z,95784.19
2023-11-30T23:33:35.530Z,95784.19
2023-11-30T23:36:02.136Z,95778.22
2023-11-30T23:38:28.865Z,95782.47
2023-11-30T23:40:55.435Z,95780.78
2023-11-30T23:43:22.007Z,95778.22
2023-11-30T23:45:49.139Z,95779.91
2023-11-30T23:48:15.824Z,95780.78
2023-11-30T23:50:42.433Z,95798.66
2023-11-30T23:53:08.967Z,95800.34
2023-11-30T23:55:35.536Z,95804.63
2023-11-30T23:58:03.505Z,95802.06
